sensor_id;sensor_type;location;lat;lon;timestamp;P1;durP1;ratioP1;P2;durP2;ratioP2
45314;SDS011;31051;51.540;5.852;2023-05-07T00:05:29;5.9;;;5.3;;
45314;SDS011;31051;51.540;5.852;2023-05-07T00:18:28;6.6;;;5.7;;
45314;SDS011;31051;51.540;5.852;2023-05-07T00:31:28;6.3;;;5.7;;
45314;SDS011;31051;51.540;5.852;2023-05-07T00:44:27;6.0;;;5.5;;
45314;SDS011;31051;51.540;5.852;2023-05-07T00:57:27;5.9;;;5.4;;
45314;SDS011;31051;51.540;5.852;2023-05-07T01:10:26;6.7;;;6.0;;
45314;SDS011;31051;51.540;5.852;2023-05-07T01:23:25;7.0;;;6.1;;
45314;SDS011;31051;51.540;5.852;2023-05-07T01:36:25;7.4;;;6.7;;
45314;SDS011;31051;51.540;5.852;2023-05-07T01:49:24;7.4;;;6.7;;
45314;SDS011;31051;51.540;5.852;2023-05-07T02:02:22;7.5;;;6.8;;
45314;SDS011;31051;51.540;5.852;2023-05-07T02:15:12;8.5;;;7.8;;
45314;SDS011;31051;51.540;5.852;2023-05-07T02:28:11;8.3;;;7.5;;
45314;SDS011;31051;51.540;5.852;2023-05-07T02:41:10;8.5;;;7.8;;
45314;SDS011;31051;51.540;5.852;2023-05-07T02:54:10;8.8;;;8.1;;
45314;SDS011;31051;51.540;5.852;2023-05-07T03:07:09;8.5;;;7.7;;
45314;SDS011;31051;51.540;5.852;2023-05-07T03:20:09;9.6;;;8.8;;
45314;SDS011;31051;51.540;5.852;2023-05-07T03:33:08;10.2;;;9.3;;
45314;SDS011;31051;51.540;5.852;2023-05-07T03:46:07;12.1;;;11.0;;
45314;SDS011;31051;51.540;5.852;2023-05-07T03:59:07;12.9;;;11.8;;
45314;SDS011;31051;51.540;5.852;2023-05-07T04:12:06;13.9;;;12.7;;
45314;SDS011;31051;51.540;5.852;2023-05-07T04:25:05;13.4;;;12.2;;
45314;SDS011;31051;51.540;5.852;2023-05-07T04:38:05;16.8;;;14.5;;
45314;SDS011;31051;51.540;5.852;2023-05-07T04:51:04;15.5;;;14.2;;
45314;SDS011;31051;51.540;5.852;2023-05-07T05:04:03;16.0;;;14.5;;
45314;SDS011;31051;51.540;5.852;2023-05-07T05:16:52;18.2;;;16.6;;
45314;SDS011;31051;51.540;5.852;2023-05-07T05:29:51;16.1;;;14.6;;
45314;SDS011;31051;51.540;5.852;2023-05-07T05:42:51;17.5;;;15.8;;
45314;SDS011;31051;51.540;5.852;2023-05-07T05:55:50;17.7;;;16.0;;
45314;SDS011;31051;51.540;5.852;2023-05-07T06:08:48;16.8;;;15.3;;
45314;SDS011;31051;51.540;5.852;2023-05-07T06:21:38;16.4;;;15.0;;
45314;SDS011;31051;51.540;5.852;2023-05-07T06:34:37;15.9;;;14.5;;
45314;SDS011;31051;51.540;5.852;2023-05-07T06:47:35;13.6;;;12.4;;
45314;SDS011;31051;51.540;5.852;2023-05-07T07:00:25;12.6;;;11.3;;
45314;SDS011;31051;51.540;5.852;2023-05-07T07:13:23;11.2;;;10.3;;
45314;SDS011;31051;51.540;5.852;2023-05-07T07:26:12;11.4;;;10.3;;
45314;SDS011;31051;51.540;5.852;2023-05-07T07:39:11;10.4;;;9.4;;
45314;SDS011;31051;51.540;5.852;2023-05-07T07:52:00;9.5;;;8.3;;
45314;SDS011;31051;51.540;5.852;2023-05-07T08:04:59;10.2;;;9.1;;
45314;SDS011;31051;51.540;5.852;2023-05-07T08:17:47;8.3;;;7.6;;
45314;SDS011;31051;51.540;5.852;2023-05-07T08:30:35;8.6;;;7.8;;
45314;SDS011;31051;51.540;5.852;2023-05-07T08:43:24;8.4;;;7.4;;
45314;SDS011;31051;51.540;5.852;2023-05-07T08:56:13;8.9;;;7.1;;
45314;SDS011;31051;51.540;5.852;2023-05-07T09:09:11;6.7;;;6.0;;
45314;SDS011;31051;51.540;5.852;2023-05-07T09:22:01;7.5;;;5.9;;
45314;SDS011;31051;51.540;5.852;2023-05-07T09:34:59;7.9;;;5.8;;
45314;SDS011;31051;51.540;5.852;2023-05-07T09:47:48;8.0;;;6.9;;
45314;SDS011;31051;51.540;5.852;2023-05-07T10:00:37;9.1;;;6.2;;
45314;SDS011;31051;51.540;5.852;2023-05-07T10:13:36;6.8;;;5.0;;
45314;SDS011;31051;51.540;5.852;2023-05-07T10:26:24;5.8;;;5.0;;
45314;SDS011;31051;51.540;5.852;2023-05-07T10:39:11;6.8;;;4.7;;
45314;SDS011;31051;51.540;5.852;2023-05-07T10:52:00;9.2;;;4.8;;
45314;SDS011;31051;51.540;5.852;2023-05-07T11:04:59;5.2;;;3.2;;
45314;SDS011;31051;51.540;5.852;2023-05-07T11:17:57;9.2;;;3.6;;
45314;SDS011;31051;51.540;5.852;2023-05-07T11:30:44;6.6;;;3.9;;
45314;SDS011;31051;51.540;5.852;2023-05-07T11:43:32;7.9;;;4.0;;
45314;SDS011;31051;51.540;5.852;2023-05-07T11:56:19;5.4;;;3.8;;
45314;SDS011;31051;51.540;5.852;2023-05-07T12:09:06;6.7;;;4.1;;
45314;SDS011;31051;51.540;5.852;2023-05-07T12:21:54;10.9;;;4.6;;
45314;SDS011;31051;51.540;5.852;2023-05-07T12:34:42;9.9;;;4.3;;
45314;SDS011;31051;51.540;5.852;2023-05-07T12:47:40;4.0;;;2.2;;
45314;SDS011;31051;51.540;5.852;2023-05-07T13:00:28;3.9;;;1.9;;
45314;SDS011;31051;51.540;5.852;2023-05-07T13:13:16;3.9;;;2.0;;
45314;SDS011;31051;51.540;5.852;2023-05-07T13:26:05;4.1;;;2.1;;
45314;SDS011;31051;51.540;5.852;2023-05-07T13:38:53;3.6;;;2.1;;
45314;SDS011;31051;51.540;5.852;2023-05-07T13:51:41;4.1;;;2.2;;
45314;SDS011;31051;51.540;5.852;2023-05-07T14:04:30;5.0;;;3.3;;
45314;SDS011;31051;51.540;5.852;2023-05-07T14:17:19;4.4;;;2.5;;
45314;SDS011;31051;51.540;5.852;2023-05-07T14:30:18;4.2;;;2.7;;
45314;SDS011;31051;51.540;5.852;2023-05-07T14:43:18;1.7;;;1.4;;
45314;SDS011;31051;51.540;5.852;2023-05-07T14:56:17;2.2;;;1.1;;
45314;SDS011;31051;51.540;5.852;2023-05-07T15:09:17;2.6;;;1.4;;
45314;SDS011;31051;51.540;5.852;2023-05-07T15:22:15;2.0;;;1.3;;
45314;SDS011;31051;51.540;5.852;2023-05-07T15:35:03;2.0;;;1.2;;
45314;SDS011;31051;51.540;5.852;2023-05-07T15:47:51;2.7;;;1.7;;
45314;SDS011;31051;51.540;5.852;2023-05-07T16:00:40;3.0;;;1.8;;
45314;SDS011;31051;51.540;5.852;2023-05-07T16:13:29;2.8;;;2.1;;
45314;SDS011;31051;51.540;5.852;2023-05-07T16:26:28;2.8;;;1.9;;
45314;SDS011;31051;51.540;5.852;2023-05-07T16:39:28;3.0;;;2.3;;
45314;SDS011;31051;51.540;5.852;2023-05-07T16:52:26;3.1;;;2.2;;
45314;SDS011;31051;51.540;5.852;2023-05-07T17:05:15;3.5;;;2.8;;
45314;SDS011;31051;51.540;5.852;2023-05-07T17:18:03;2.6;;;2.2;;
45314;SDS011;31051;51.540;5.852;2023-05-07T17:30:52;2.7;;;2.4;;
45314;SDS011;31051;51.540;5.852;2023-05-07T17:43:51;3.7;;;2.6;;
45314;SDS011;31051;51.540;5.852;2023-05-07T17:56:39;2.7;;;2.4;;
45314;SDS011;31051;51.540;5.852;2023-05-07T18:09:28;5.2;;;3.0;;
45314;SDS011;31051;51.540;5.852;2023-05-07T18:22:28;4.7;;;2.9;;
45314;SDS011;31051;51.540;5.852;2023-05-07T18:35:27;4.3;;;3.2;;
45314;SDS011;31051;51.540;5.852;2023-05-07T18:48:25;3.6;;;3.1;;
45314;SDS011;31051;51.540;5.852;2023-05-07T19:01:15;3.7;;;3.2;;
45314;SDS011;31051;51.540;5.852;2023-05-07T19:14:14;3.6;;;3.3;;
45314;SDS011;31051;51.540;5.852;2023-05-07T19:27:14;3.8;;;3.4;;
45314;SDS011;31051;51.540;5.852;2023-05-07T19:40:13;4.3;;;3.5;;
45314;SDS011;31051;51.540;5.852;2023-05-07T19:53:11;4.1;;;3.7;;
45314;SDS011;31051;51.540;5.852;2023-05-07T20:06:01;4.2;;;3.7;;
45314;SDS011;31051;51.540;5.852;2023-05-07T20:19:00;5.1;;;4.6;;
45314;SDS011;31051;51.540;5.852;2023-05-07T20:31:59;4.5;;;4.2;;
45314;SDS011;31051;51.540;5.852;2023-05-07T20:44:59;5.2;;;4.6;;
45314;SDS011;31051;51.540;5.852;2023-05-07T20:57:58;5.5;;;5.0;;
45314;SDS011;31051;51.540;5.852;2023-05-07T21:10:58;5.1;;;4.7;;
45314;SDS011;31051;51.540;5.852;2023-05-07T21:23:57;5.7;;;5.2;;
45314;SDS011;31051;51.540;5.852;2023-05-07T21:36:56;5.6;;;5.0;;
45314;SDS011;31051;51.540;5.852;2023-05-07T21:49:56;5.5;;;5.1;;
45314;SDS011;31051;51.540;5.852;2023-05-07T22:02:55;5.3;;;4.9;;
45314;SDS011;31051;51.540;5.852;2023-05-07T22:15:55;6.6;;;6.1;;
45314;SDS011;31051;51.540;5.852;2023-05-07T22:28:54;6.3;;;5.8;;
45314;SDS011;31051;51.540;5.852;2023-05-07T22:41:53;7.0;;;6.4;;
45314;SDS011;31051;51.540;5.852;2023-05-07T22:54:52;7.5;;;6.9;;
45314;SDS011;31051;51.540;5.852;2023-05-07T23:07:41;7.7;;;7.1;;
45314;SDS011;31051;51.540;5.852;2023-05-07T23:20:40;7.9;;;7.3;;
45314;SDS011;31051;51.540;5.852;2023-05-07T23:33:40;7.3;;;6.8;;
45314;SDS011;31051;51.540;5.852;2023-05-07T23:46:39;8.3;;;7.7;;
45314;SDS011;31051;51.540;5.852;2023-05-07T23:59:38;9.4;;;8.8;;
